sensor_id;sensor_type;location;lat;lon;timestamp;P1;durP1;ratioP1;P2;durP2;ratioP2
22152;SDS011;11242;50.536;12.688;2022-08-06T00:01:03;6.32;;;5.72;;
22152;SDS011;11242;50.536;12.688;2022-08-06T00:03:28;9.10;;;5.35;;
22152;SDS011;11242;50.536;12.688;2022-08-06T00:05:54;8.18;;;5.85;;
22152;SDS011;11242;50.536;12.688;2022-08-06T00:08:19;7.22;;;5.85;;
22152;SDS011;11242;50.536;12.688;2022-08-06T00:10:45;6.53;;;5.13;;
22152;SDS011;11242;50.536;12.688;2022-08-06T00:13:11;8.68;;;5.90;;
22152;SDS011;11242;50.536;12.688;2022-08-06T00:15:36;6.70;;;5.25;;
22152;SDS011;11242;50.536;12.688;2022-08-06T00:18:02;6.75;;;5.50;;
22152;SDS011;11242;50.536;12.688;2022-08-06T00:20:28;6.20;;;5.70;;
22152;SDS011;11242;50.536;12.688;2022-08-06T00:22:53;6.70;;;5.53;;
22152;SDS011;11242;50.536;12.688;2022-08-06T00:25:19;6.72;;;5.00;;
22152;SDS011;11242;50.536;12.688;2022-08-06T00:27:44;5.82;;;4.85;;
22152;SDS011;11242;50.536;12.688;2022-08-06T00:30:10;5.68;;;5.18;;
22152;SDS011;11242;50.536;12.688;2022-08-06T00:32:36;6.28;;;4.95;;
22152;SDS011;11242;50.536;12.688;2022-08-06T00:35:02;5.35;;;4.82;;
22152;SDS011;11242;50.536;12.688;2022-08-06T00:37:28;6.85;;;4.70;;
22152;SDS011;11242;50.536;12.688;2022-08-06T00:39:57;6.10;;;4.97;;
22152;SDS011;11242;50.536;12.688;2022-08-06T00:42:26;7.15;;;5.18;;
22152;SDS011;11242;50.536;12.688;2022-08-06T00:44:52;6.20;;;5.50;;
22152;SDS011;11242;50.536;12.688;2022-08-06T00:47:18;5.53;;;5.07;;
22152;SDS011;11242;50.536;12.688;2022-08-06T00:49:44;5.28;;;4.78;;
22152;SDS011;11242;50.536;12.688;2022-08-06T00:52:09;6.03;;;5.22;;
22152;SDS011;11242;50.536;12.688;2022-08-06T00:54:35;7.38;;;5.13;;
22152;SDS011;11242;50.536;12.688;2022-08-06T00:57:01;5.72;;;5.15;;
22152;SDS011;11242;50.536;12.688;2022-08-06T00:59:27;7.07;;;5.50;;
22152;SDS011;11242;50.536;12.688;2022-08-06T01:01:52;5.75;;;5.25;;
22152;SDS011;11242;50.536;12.688;2022-08-06T01:04:18;6.10;;;5.50;;
22152;SDS011;11242;50.536;12.688;2022-08-06T01:06:44;6.43;;;5.30;;
22152;SDS011;11242;50.536;12.688;2022-08-06T01:09:10;6.57;;;5.93;;
22152;SDS011;11242;50.536;12.688;2022-08-06T01:11:36;7.07;;;5.85;;
22152;SDS011;11242;50.536;12.688;2022-08-06T01:14:02;6.93;;;6.22;;
22152;SDS011;11242;50.536;12.688;2022-08-06T01:19:11;7.55;;;6.47;;
22152;SDS011;11242;50.536;12.688;2022-08-06T01:28:02;7.28;;;6.57;;
22152;SDS011;11242;50.536;12.688;2022-08-06T01:30:34;6.90;;;6.20;;
22152;SDS011;11242;50.536;12.688;2022-08-06T01:33:17;6.60;;;6.00;;
22152;SDS011;11242;50.536;12.688;2022-08-06T01:35:49;7.38;;;6.57;;
22152;SDS011;11242;50.536;12.688;2022-08-06T01:38:31;7.10;;;6.40;;
22152;SDS011;11242;50.536;12.688;2022-08-06T01:41:00;7.22;;;6.22;;
22152;SDS011;11242;50.536;12.688;2022-08-06T01:43:29;7.20;;;6.22;;
22152;SDS011;11242;50.536;12.688;2022-08-06T01:45:56;8.20;;;7.10;;
22152;SDS011;11242;50.536;12.688;2022-08-06T01:48:25;7.63;;;6.82;;
22152;SDS011;11242;50.536;12.688;2022-08-06T01:50:52;8.38;;;7.15;;
22152;SDS011;11242;50.536;12.688;2022-08-06T01:53:23;10.40;;;7.07;;
22152;SDS011;11242;50.536;12.688;2022-08-06T01:55:54;8.18;;;6.30;;
22152;SDS011;11242;50.536;12.688;2022-08-06T01:58:33;6.47;;;5.88;;
22152;SDS011;11242;50.536;12.688;2022-08-06T02:01:03;7.65;;;6.95;;
22152;SDS011;11242;50.536;12.688;2022-08-06T02:03:46;8.75;;;7.85;;
22152;SDS011;11242;50.536;12.688;2022-08-06T02:06:15;7.90;;;7.20;;
22152;SDS011;11242;50.536;12.688;2022-08-06T02:08:44;9.63;;;7.47;;
22152;SDS011;11242;50.536;12.688;2022-08-06T02:11:12;7.82;;;6.85;;
22152;SDS011;11242;50.536;12.688;2022-08-06T02:13:38;8.00;;;6.85;;
22152;SDS011;11242;50.536;12.688;2022-08-06T02:16:06;11.23;;;7.18;;
22152;SDS011;11242;50.536;12.688;2022-08-06T02:18:36;11.88;;;7.80;;
22152;SDS011;11242;50.536;12.688;2022-08-06T02:21:06;13.60;;;10.85;;
22152;SDS011;11242;50.536;12.688;2022-08-06T02:23:33;17.13;;;15.38;;
22152;SDS011;11242;50.536;12.688;2022-08-06T02:26:00;12.18;;;11.07;;
22152;SDS011;11242;50.536;12.688;2022-08-06T02:28:27;13.95;;;12.55;;
22152;SDS011;11242;50.536;12.688;2022-08-06T02:30:55;13.77;;;12.35;;
22152;SDS011;11242;50.536;12.688;2022-08-06T02:33:21;12.60;;;10.95;;
22152;SDS011;11242;50.536;12.688;2022-08-06T02:35:52;13.52;;;11.88;;
22152;SDS011;11242;50.536;12.688;2022-08-06T02:38:35;12.48;;;11.05;;
22152;SDS011;11242;50.536;12.688;2022-08-06T02:43:49;12.15;;;10.52;;
22152;SDS011;11242;50.536;12.688;2022-08-06T02:46:25;11.77;;;10.60;;
22152;SDS011;11242;50.536;12.688;2022-08-06T02:49:00;13.43;;;9.95;;
22152;SDS011;11242;50.536;12.688;2022-08-06T02:51:32;9.45;;;8.55;;
22152;SDS011;11242;50.536;12.688;2022-08-06T02:54:05;8.90;;;8.10;;
22152;SDS011;11242;50.536;12.688;2022-08-06T02:56:34;9.90;;;8.90;;
22152;SDS011;11242;50.536;12.688;2022-08-06T02:59:02;9.48;;;8.25;;
22152;SDS011;11242;50.536;12.688;2022-08-06T03:01:33;9.48;;;7.85;;
22152;SDS011;11242;50.536;12.688;2022-08-06T03:04:02;8.90;;;8.00;;
22152;SDS011;11242;50.536;12.688;2022-08-06T03:06:30;7.88;;;7.07;;
22152;SDS011;11242;50.536;12.688;2022-08-06T03:08:59;8.40;;;6.97;;
22152;SDS011;11242;50.536;12.688;2022-08-06T03:11:28;9.80;;;7.15;;
22152;SDS011;11242;50.536;12.688;2022-08-06T03:13:56;7.95;;;7.13;;
22152;SDS011;11242;50.536;12.688;2022-08-06T03:16:23;7.38;;;6.63;;
22152;SDS011;11242;50.536;12.688;2022-08-06T03:18:50;8.85;;;6.88;;
22152;SDS011;11242;50.536;12.688;2022-08-06T03:21:17;8.07;;;5.97;;
22152;SDS011;11242;50.536;12.688;2022-08-06T03:23:46;6.13;;;5.55;;
22152;SDS011;11242;50.536;12.688;2022-08-06T03:26:13;10.35;;;6.15;;
22152;SDS011;11242;50.536;12.688;2022-08-06T03:28:39;6.88;;;5.80;;
22152;SDS011;11242;50.536;12.688;2022-08-06T03:31:06;8.85;;;5.80;;
22152;SDS011;11242;50.536;12.688;2022-08-06T03:33:32;7.68;;;5.55;;
22152;SDS011;11242;50.536;12.688;2022-08-06T03:35:59;7.90;;;5.47;;
22152;SDS011;11242;50.536;12.688;2022-08-06T03:38:27;7.78;;;5.20;;
22152;SDS011;11242;50.536;12.688;2022-08-06T03:40:57;6.47;;;5.05;;
22152;SDS011;11242;50.536;12.688;2022-08-06T03:43:24;8.20;;;5.57;;
22152;SDS011;11242;50.536;12.688;2022-08-06T03:45:51;5.47;;;4.97;;
22152;SDS011;11242;50.536;12.688;2022-08-06T03:48:24;7.07;;;4.53;;
22152;SDS011;11242;50.536;12.688;2022-08-06T03:50:52;6.95;;;4.55;;
22152;SDS011;11242;50.536;12.688;2022-08-06T03:53:20;4.03;;;3.65;;
22152;SDS011;11242;50.536;12.688;2022-08-06T03:55:52;5.97;;;4.05;;
22152;SDS011;11242;50.536;12.688;2022-08-06T03:58:22;4.13;;;3.63;;
22152;SDS011;11242;50.536;12.688;2022-08-06T04:00:54;4.93;;;3.72;;
22152;SDS011;11242;50.536;12.688;2022-08-06T04:03:24;6.45;;;3.58;;
22152;SDS011;11242;50.536;12.688;2022-08-06T04:05:50;4.80;;;3.80;;
22152;SDS011;11242;50.536;12.688;2022-08-06T04:08:16;9.00;;;4.15;;
22152;SDS011;11242;50.536;12.688;2022-08-06T04:10:44;3.50;;;3.20;;
22152;SDS011;11242;50.536;12.688;2022-08-06T04:13:13;3.25;;;2.97;;
22152;SDS011;11242;50.536;12.688;2022-08-06T04:15:41;4.90;;;3.10;;
22152;SDS011;11242;50.536;12.688;2022-08-06T04:18:13;3.13;;;2.83;;
22152;SDS011;11242;50.536;12.688;2022-08-06T04:23:08;4.97;;;3.67;;
22152;SDS011;11242;50.536;12.688;2022-08-06T04:25:34;4.50;;;2.67;;
22152;SDS011;11242;50.536;12.688;2022-08-06T04:28:05;2.50;;;2.17;;
22152;SDS011;11242;50.536;12.688;2022-08-06T04:30:32;3.58;;;2.88;;
22152;SDS011;11242;50.536;12.688;2022-08-06T04:32:59;7.05;;;3.65;;
22152;SDS011;11242;50.536;12.688;2022-08-06T04:35:30;7.55;;;4.45;;
22152;SDS011;11242;50.536;12.688;2022-08-06T04:37:57;3.80;;;2.38;;
22152;SDS011;11242;50.536;12.688;2022-08-06T04:40:25;7.00;;;4.68;;
22152;SDS011;11242;50.536;12.688;2022-08-06T04:42:51;4.93;;;3.75;;
22152;SDS011;11242;50.536;12.688;2022-08-06T04:45:17;5.72;;;4.82;;
22152;SDS011;11242;50.536;12.688;2022-08-06T04:47:43;4.63;;;3.08;;
22152;SDS011;11242;50.536;12.688;2022-08-06T04:50:10;5.20;;;3.85;;
22152;SDS011;11242;50.536;12.688;2022-08-06T04:52:36;17.25;;;12.07;;
22152;SDS011;11242;50.536;12.688;2022-08-06T04:55:01;2.58;;;1.90;;
22152;SDS011;11242;50.536;12.688;2022-08-06T04:57:28;4.80;;;3.55;;
22152;SDS011;11242;50.536;12.688;2022-08-06T04:59:53;3.58;;;2.50;;
22152;SDS011;11242;50.536;12.688;2022-08-06T05:02:19;2.47;;;2.28;;
22152;SDS011;11242;50.536;12.688;2022-08-06T05:04:45;2.15;;;1.75;;
22152;SDS011;11242;50.536;12.688;2022-08-06T05:07:18;2.55;;;1.65;;
22152;SDS011;11242;50.536;12.688;2022-08-06T05:09:47;3.38;;;1.88;;
22152;SDS011;11242;50.536;12.688;2022-08-06T05:17:36;2.17;;;1.95;;
22152;SDS011;11242;50.536;12.688;2022-08-06T05:20:12;4.28;;;1.70;;
22152;SDS011;11242;50.536;12.688;2022-08-06T05:22:41;2.90;;;2.47;;
22152;SDS011;11242;50.536;12.688;2022-08-06T05:25:08;6.22;;;5.63;;
22152;SDS011;11242;50.536;12.688;2022-08-06T05:27:34;6.43;;;2.88;;
22152;SDS011;11242;50.536;12.688;2022-08-06T05:30:01;4.43;;;3.03;;
22152;SDS011;11242;50.536;12.688;2022-08-06T05:32:30;4.60;;;2.78;;
22152;SDS011;11242;50.536;12.688;2022-08-06T05:34:55;6.88;;;5.22;;
22152;SDS011;11242;50.536;12.688;2022-08-06T05:37:21;6.28;;;3.28;;
22152;SDS011;11242;50.536;12.688;2022-08-06T05:39:46;4.32;;;2.00;;
22152;SDS011;11242;50.536;12.688;2022-08-06T05:42:12;2.00;;;1.80;;
22152;SDS011;11242;50.536;12.688;2022-08-06T05:44:37;2.88;;;1.85;;
22152;SDS011;11242;50.536;12.688;2022-08-06T05:47:23;2.53;;;1.98;;
22152;SDS011;11242;50.536;12.688;2022-08-06T05:49:55;2.90;;;2.65;;
22152;SDS011;11242;50.536;12.688;2022-08-06T05:52:28;2.65;;;1.88;;
22152;SDS011;11242;50.536;12.688;2022-08-06T05:55:08;2.38;;;1.75;;
22152;SDS011;11242;50.536;12.688;2022-08-06T05:57:42;2.78;;;1.90;;
22152;SDS011;11242;50.536;12.688;2022-08-06T06:00:13;2.57;;;2.00;;
22152;SDS011;11242;50.536;12.688;2022-08-06T06:02:46;3.75;;;1.77;;
22152;SDS011;11242;50.536;12.688;2022-08-06T06:05:14;4.63;;;3.92;;
22152;SDS011;11242;50.536;12.688;2022-08-06T06:07:40;12.23;;;10.23;;
22152;SDS011;11242;50.536;12.688;2022-08-06T06:10:06;8.07;;;6.72;;
22152;SDS011;11242;50.536;12.688;2022-08-06T06:12:33;2.65;;;2.35;;
22152;SDS011;11242;50.536;12.688;2022-08-06T06:15:00;4.72;;;2.25;;
22152;SDS011;11242;50.536;12.688;2022-08-06T06:20:17;5.95;;;4.68;;
22152;SDS011;11242;50.536;12.688;2022-08-06T06:30:22;3.28;;;2.35;;
22152;SDS011;11242;50.536;12.688;2022-08-06T06:35:53;1.80;;;1.70;;
22152;SDS011;11242;50.536;12.688;2022-08-06T06:38:36;4.03;;;1.80;;
22152;SDS011;11242;50.536;12.688;2022-08-06T06:44:04;3.03;;;1.70;;
22152;SDS011;11242;50.536;12.688;2022-08-06T06:46:32;2.60;;;1.52;;
22152;SDS011;11242;50.536;12.688;2022-08-06T06:49:25;3.80;;;2.25;;
22152;SDS011;11242;50.536;12.688;2022-08-06T06:55:05;1.73;;;1.63;;
22152;SDS011;11242;50.536;12.688;2022-08-06T06:57:32;4.53;;;2.03;;
22152;SDS011;11242;50.536;12.688;2022-08-06T07:00:03;4.85;;;1.88;;
22152;SDS011;11242;50.536;12.688;2022-08-06T07:02:31;5.15;;;1.60;;
22152;SDS011;11242;50.536;12.688;2022-08-06T07:05:00;3.25;;;1.55;;
22152;SDS011;11242;50.536;12.688;2022-08-06T07:07:31;1.55;;;1.45;;
22152;SDS011;11242;50.536;12.688;2022-08-06T07:09:58;1.33;;;1.20;;
22152;SDS011;11242;50.536;12.688;2022-08-06T07:12:27;2.90;;;1.20;;
22152;SDS011;11242;50.536;12.688;2022-08-06T07:14:55;1.45;;;1.30;;
22152;SDS011;11242;50.536;12.688;2022-08-06T07:17:23;3.25;;;1.50;;
22152;SDS011;11242;50.536;12.688;2022-08-06T07:19:51;1.75;;;1.30;;
22152;SDS011;11242;50.536;12.688;2022-08-06T07:22:19;1.40;;;1.27;;
22152;SDS011;11242;50.536;12.688;2022-08-06T07:24:47;1.63;;;1.33;;
22152;SDS011;11242;50.536;12.688;2022-08-06T07:27:17;3.00;;;1.65;;
22152;SDS011;11242;50.536;12.688;2022-08-06T07:29:43;2.90;;;1.65;;
22152;SDS011;11242;50.536;12.688;2022-08-06T07:32:10;3.30;;;1.50;;
22152;SDS011;11242;50.536;12.688;2022-08-06T07:34:36;1.52;;;1.23;;
22152;SDS011;11242;50.536;12.688;2022-08-06T07:37:04;2.28;;;1.27;;
22152;SDS011;11242;50.536;12.688;2022-08-06T07:39:32;1.20;;;1.08;;
22152;SDS011;11242;50.536;12.688;2022-08-06T07:42:00;1.88;;;1.60;;
22152;SDS011;11242;50.536;12.688;2022-08-06T07:44:32;1.38;;;1.05;;
22152;SDS011;11242;50.536;12.688;2022-08-06T07:47:01;1.92;;;1.00;;
22152;SDS011;11242;50.536;12.688;2022-08-06T07:49:39;2.20;;;0.93;;
22152;SDS011;11242;50.536;12.688;2022-08-06T07:52:07;2.15;;;0.65;;
22152;SDS011;11242;50.536;12.688;2022-08-06T07:54:37;2.50;;;0.77;;
22152;SDS011;11242;50.536;12.688;2022-08-06T07:57:04;1.95;;;0.90;;
22152;SDS011;11242;50.536;12.688;2022-08-06T07:59:31;3.58;;;1.13;;
22152;SDS011;11242;50.536;12.688;2022-08-06T08:01:58;1.17;;;0.73;;
22152;SDS011;11242;50.536;12.688;2022-08-06T08:04:27;2.70;;;0.85;;
22152;SDS011;11242;50.536;12.688;2022-08-06T08:07:12;1.65;;;0.85;;
22152;SDS011;11242;50.536;12.688;2022-08-06T08:09:40;2.25;;;0.75;;
22152;SDS011;11242;50.536;12.688;2022-08-06T08:12:07;0.82;;;0.80;;
22152;SDS011;11242;50.536;12.688;2022-08-06T08:14:36;1.55;;;0.80;;
22152;SDS011;11242;50.536;12.688;2022-08-06T08:17:04;2.38;;;0.85;;
22152;SDS011;11242;50.536;12.688;2022-08-06T08:19:30;3.92;;;2.17;;
22152;SDS011;11242;50.536;12.688;2022-08-06T08:21:58;2.00;;;1.25;;
22152;SDS011;11242;50.536;12.688;2022-08-06T08:24:25;3.42;;;1.30;;
22152;SDS011;11242;50.536;12.688;2022-08-06T08:26:52;2.85;;;1.17;;
22152;SDS011;11242;50.536;12.688;2022-08-06T08:29:19;1.45;;;1.00;;
22152;SDS011;11242;50.536;12.688;2022-08-06T08:31:44;2.67;;;1.25;;
22152;SDS011;11242;50.536;12.688;2022-08-06T08:34:10;1.33;;;0.95;;
22152;SDS011;11242;50.536;12.688;2022-08-06T08:36:37;1.75;;;0.90;;
22152;SDS011;11242;50.536;12.688;2022-08-06T08:39:03;3.05;;;0.90;;
22152;SDS011;11242;50.536;12.688;2022-08-06T08:41:33;4.97;;;1.00;;
22152;SDS011;11242;50.536;12.688;2022-08-06T08:44:02;3.13;;;1.10;;
22152;SDS011;11242;50.536;12.688;2022-08-06T08:46:34;1.13;;;0.60;;
22152;SDS011;11242;50.536;12.688;2022-08-06T08:49:03;1.48;;;0.70;;
22152;SDS011;11242;50.536;12.688;2022-08-06T08:51:30;1.85;;;0.98;;
22152;SDS011;11242;50.536;12.688;2022-08-06T08:53:59;0.82;;;0.82;;
22152;SDS011;11242;50.536;12.688;2022-08-06T08:56:27;2.58;;;0.90;;
22152;SDS011;11242;50.536;12.688;2022-08-06T08:58:53;1.63;;;0.77;;
22152;SDS011;11242;50.536;12.688;2022-08-06T09:01:19;1.58;;;0.80;;
22152;SDS011;11242;50.536;12.688;2022-08-06T09:03:45;4.00;;;1.75;;
22152;SDS011;11242;50.536;12.688;2022-08-06T09:06:12;1.52;;;1.00;;
22152;SDS011;11242;50.536;12.688;2022-08-06T09:08:38;1.65;;;0.80;;
22152;SDS011;11242;50.536;12.688;2022-08-06T09:11:05;1.52;;;0.88;;
22152;SDS011;11242;50.536;12.688;2022-08-06T09:13:37;1.58;;;1.30;;
22152;SDS011;11242;50.536;12.688;2022-08-06T09:16:03;2.78;;;1.88;;
22152;SDS011;11242;50.536;12.688;2022-08-06T09:18:29;1.30;;;1.20;;
22152;SDS011;11242;50.536;12.688;2022-08-06T09:20:54;2.03;;;0.82;;
22152;SDS011;11242;50.536;12.688;2022-08-06T09:23:20;2.33;;;1.25;;
22152;SDS011;11242;50.536;12.688;2022-08-06T09:25:47;2.60;;;0.70;;
22152;SDS011;11242;50.536;12.688;2022-08-06T09:28:34;1.02;;;0.80;;
22152;SDS011;11242;50.536;12.688;2022-08-06T09:33:29;3.42;;;1.75;;
22152;SDS011;11242;50.536;12.688;2022-08-06T09:35:56;2.92;;;1.05;;
22152;SDS011;11242;50.536;12.688;2022-08-06T09:38:26;1.60;;;1.05;;
22152;SDS011;11242;50.536;12.688;2022-08-06T09:41:02;3.70;;;0.95;;
22152;SDS011;11242;50.536;12.688;2022-08-06T09:43:29;1.20;;;0.75;;
22152;SDS011;11242;50.536;12.688;2022-08-06T09:45:55;2.08;;;0.80;;
22152;SDS011;11242;50.536;12.688;2022-08-06T09:48:20;3.13;;;0.82;;
22152;SDS011;11242;50.536;12.688;2022-08-06T09:50:46;4.57;;;0.80;;
22152;SDS011;11242;50.536;12.688;2022-08-06T09:53:12;3.53;;;1.20;;
22152;SDS011;11242;50.536;12.688;2022-08-06T09:55:39;2.25;;;0.82;;
22152;SDS011;11242;50.536;12.688;2022-08-06T09:58:05;0.70;;;0.70;;
22152;SDS011;11242;50.536;12.688;2022-08-06T10:00:32;3.28;;;1.13;;
22152;SDS011;11242;50.536;12.688;2022-08-06T10:03:00;1.70;;;1.17;;
22152;SDS011;11242;50.536;12.688;2022-08-06T10:05:28;2.35;;;1.05;;
22152;SDS011;11242;50.536;12.688;2022-08-06T10:08:14;3.50;;;0.88;;
22152;SDS011;11242;50.536;12.688;2022-08-06T10:13:27;1.27;;;0.63;;
22152;SDS011;11242;50.536;12.688;2022-08-06T10:15:55;2.08;;;0.73;;
22152;SDS011;11242;50.536;12.688;2022-08-06T10:23:35;1.55;;;0.85;;
22152;SDS011;11242;50.536;12.688;2022-08-06T10:26:02;3.58;;;0.90;;
22152;SDS011;11242;50.536;12.688;2022-08-06T10:28:32;1.35;;;0.82;;
22152;SDS011;11242;50.536;12.688;2022-08-06T10:31:00;1.10;;;0.60;;
22152;SDS011;11242;50.536;12.688;2022-08-06T10:33:28;2.28;;;0.70;;
22152;SDS011;11242;50.536;12.688;2022-08-06T10:35:59;2.03;;;0.73;;
22152;SDS011;11242;50.536;12.688;2022-08-06T10:38:30;2.83;;;1.00;;
22152;SDS011;11242;50.536;12.688;2022-08-06T10:40:59;2.97;;;0.90;;
22152;SDS011;11242;50.536;12.688;2022-08-06T10:43:31;1.38;;;0.90;;
22152;SDS011;11242;50.536;12.688;2022-08-06T10:45:59;1.27;;;0.90;;
22152;SDS011;11242;50.536;12.688;2022-08-06T10:48:25;2.05;;;0.95;;
22152;SDS011;11242;50.536;12.688;2022-08-06T10:50:51;1.42;;;0.70;;
22152;SDS011;11242;50.536;12.688;2022-08-06T10:53:17;4.13;;;0.80;;
22152;SDS011;11242;50.536;12.688;2022-08-06T10:55:43;2.40;;;0.80;;
22152;SDS011;11242;50.536;12.688;2022-08-06T10:58:10;1.13;;;1.00;;
22152;SDS011;11242;50.536;12.688;2022-08-06T11:00:35;3.97;;;0.80;;
22152;SDS011;11242;50.536;12.688;2022-08-06T11:03:14;1.35;;;0.70;;
22152;SDS011;11242;50.536;12.688;2022-08-06T11:05:44;1.35;;;0.70;;
22152;SDS011;11242;50.536;12.688;2022-08-06T11:08:31;1.40;;;0.68;;
22152;SDS011;11242;50.536;12.688;2022-08-06T11:13:45;2.17;;;0.60;;
22152;SDS011;11242;50.536;12.688;2022-08-06T11:16:31;1.65;;;0.90;;
22152;SDS011;11242;50.536;12.688;2022-08-06T11:18:58;1.17;;;0.80;;
22152;SDS011;11242;50.536;12.688;2022-08-06T11:21:34;0.70;;;0.70;;
22152;SDS011;11242;50.536;12.688;2022-08-06T11:24:11;0.85;;;0.77;;
22152;SDS011;11242;50.536;12.688;2022-08-06T11:26:40;2.03;;;0.85;;
22152;SDS011;11242;50.536;12.688;2022-08-06T11:29:07;1.23;;;1.00;;
22152;SDS011;11242;50.536;12.688;2022-08-06T11:31:41;1.85;;;0.90;;
22152;SDS011;11242;50.536;12.688;2022-08-06T11:34:13;1.52;;;0.80;;
22152;SDS011;11242;50.536;12.688;2022-08-06T11:36:43;0.95;;;0.95;;
22152;SDS011;11242;50.536;12.688;2022-08-06T11:39:25;1.10;;;0.70;;
22152;SDS011;11242;50.536;12.688;2022-08-06T11:41:53;2.13;;;0.70;;
22152;SDS011;11242;50.536;12.688;2022-08-06T11:44:24;1.30;;;0.85;;
22152;SDS011;11242;50.536;12.688;2022-08-06T11:47:05;0.80;;;0.60;;
22152;SDS011;11242;50.536;12.688;2022-08-06T11:49:37;1.38;;;0.70;;
22152;SDS011;11242;50.536;12.688;2022-08-06T11:52:04;0.90;;;0.70;;
22152;SDS011;11242;50.536;12.688;2022-08-06T11:54:30;1.20;;;0.70;;
22152;SDS011;11242;50.536;12.688;2022-08-06T12:01:52;0.60;;;0.60;;
22152;SDS011;11242;50.536;12.688;2022-08-06T12:04:38;0.88;;;0.60;;
22152;SDS011;11242;50.536;12.688;2022-08-06T12:09:46;2.47;;;0.88;;
22152;SDS011;11242;50.536;12.688;2022-08-06T12:18:01;0.93;;;0.80;;
22152;SDS011;11242;50.536;12.688;2022-08-06T12:23:06;0.80;;;0.68;;
22152;SDS011;11242;50.536;12.688;2022-08-06T12:25:34;2.03;;;1.02;;
22152;SDS011;11242;50.536;12.688;2022-08-06T12:28:05;0.90;;;0.68;;
22152;SDS011;11242;50.536;12.688;2022-08-06T12:30:42;3.20;;;1.00;;
22152;SDS011;11242;50.536;12.688;2022-08-06T12:33:11;1.15;;;0.77;;
22152;SDS011;11242;50.536;12.688;2022-08-06T12:35:51;1.15;;;0.70;;
22152;SDS011;11242;50.536;12.688;2022-08-06T12:38:21;1.70;;;0.73;;
22152;SDS011;11242;50.536;12.688;2022-08-06T12:40:56;1.92;;;0.50;;
22152;SDS011;11242;50.536;12.688;2022-08-06T12:43:24;0.50;;;0.50;;
22152;SDS011;11242;50.536;12.688;2022-08-06T12:46:03;1.45;;;0.68;;
22152;SDS011;11242;50.536;12.688;2022-08-06T12:48:31;1.88;;;0.80;;
22152;SDS011;11242;50.536;12.688;2022-08-06T12:51:07;2.22;;;0.70;;
22152;SDS011;11242;50.536;12.688;2022-08-06T12:53:38;1.23;;;0.52;;
22152;SDS011;11242;50.536;12.688;2022-08-06T12:56:12;1.92;;;0.73;;
22152;SDS011;11242;50.536;12.688;2022-08-06T12:58:38;2.38;;;0.60;;
22152;SDS011;11242;50.536;12.688;2022-08-06T13:01:05;1.38;;;0.73;;
22152;SDS011;11242;50.536;12.688;2022-08-06T13:03:32;1.40;;;0.70;;
22152;SDS011;11242;50.536;12.688;2022-08-06T13:06:01;5.75;;;0.90;;
22152;SDS011;11242;50.536;12.688;2022-08-06T13:08:29;2.00;;;0.65;;
22152;SDS011;11242;50.536;12.688;2022-08-06T13:10:55;1.40;;;0.70;;
22152;SDS011;11242;50.536;12.688;2022-08-06T13:13:33;0.98;;;0.82;;
22152;SDS011;11242;50.536;12.688;2022-08-06T13:16:04;1.23;;;0.70;;
22152;SDS011;11242;50.536;12.688;2022-08-06T13:18:32;3.13;;;0.60;;
22152;SDS011;11242;50.536;12.688;2022-08-06T13:20:58;0.73;;;0.63;;
22152;SDS011;11242;50.536;12.688;2022-08-06T13:23:34;2.35;;;0.73;;
22152;SDS011;11242;50.536;12.688;2022-08-06T13:26:11;0.73;;;0.73;;
22152;SDS011;11242;50.536;12.688;2022-08-06T13:28:37;1.40;;;0.90;;
22152;SDS011;11242;50.536;12.688;2022-08-06T13:31:02;1.10;;;0.60;;
22152;SDS011;11242;50.536;12.688;2022-08-06T13:33:42;1.60;;;0.80;;
22152;SDS011;11242;50.536;12.688;2022-08-06T13:36:07;1.00;;;0.60;;
22152;SDS011;11242;50.536;12.688;2022-08-06T13:38:36;3.35;;;1.70;;
22152;SDS011;11242;50.536;12.688;2022-08-06T13:41:02;2.25;;;1.85;;
22152;SDS011;11242;50.536;12.688;2022-08-06T13:46:11;1.25;;;0.80;;
22152;SDS011;11242;50.536;12.688;2022-08-06T13:48:45;2.83;;;0.80;;
22152;SDS011;11242;50.536;12.688;2022-08-06T13:51:13;1.30;;;1.20;;
22152;SDS011;11242;50.536;12.688;2022-08-06T13:53:39;1.02;;;0.57;;
22152;SDS011;11242;50.536;12.688;2022-08-06T13:56:05;0.60;;;0.52;;
22152;SDS011;11242;50.536;12.688;2022-08-06T13:58:31;1.77;;;0.80;;
22152;SDS011;11242;50.536;12.688;2022-08-06T14:00:56;1.58;;;0.60;;
22152;SDS011;11242;50.536;12.688;2022-08-06T14:03:23;1.45;;;0.60;;
22152;SDS011;11242;50.536;12.688;2022-08-06T14:05:50;1.13;;;0.80;;
22152;SDS011;11242;50.536;12.688;2022-08-06T14:08:16;1.35;;;1.15;;
22152;SDS011;11242;50.536;12.688;2022-08-06T14:10:41;0.73;;;0.65;;
22152;SDS011;11242;50.536;12.688;2022-08-06T14:13:07;2.10;;;1.90;;
22152;SDS011;11242;50.536;12.688;2022-08-06T14:15:45;1.10;;;0.75;;
22152;SDS011;11242;50.536;12.688;2022-08-06T14:18:14;1.23;;;0.80;;
22152;SDS011;11242;50.536;12.688;2022-08-06T14:20:40;2.40;;;0.52;;
22152;SDS011;11242;50.536;12.688;2022-08-06T14:23:06;1.25;;;0.60;;
22152;SDS011;11242;50.536;12.688;2022-08-06T14:25:32;0.93;;;0.70;;
22152;SDS011;11242;50.536;12.688;2022-08-06T14:27:58;0.73;;;0.60;;
22152;SDS011;11242;50.536;12.688;2022-08-06T14:30:24;0.73;;;0.50;;
22152;SDS011;11242;50.536;12.688;2022-08-06T14:32:50;1.58;;;1.30;;
22152;SDS011;11242;50.536;12.688;2022-08-06T14:35:16;2.65;;;0.90;;
22152;SDS011;11242;50.536;12.688;2022-08-06T14:37:42;1.90;;;0.60;;
22152;SDS011;11242;50.536;12.688;2022-08-06T14:40:09;2.60;;;0.68;;
22152;SDS011;11242;50.536;12.688;2022-08-06T14:42:35;1.10;;;0.60;;
22152;SDS011;11242;50.536;12.688;2022-08-06T14:45:19;1.20;;;0.60;;
22152;SDS011;11242;50.536;12.688;2022-08-06T14:47:45;1.35;;;0.90;;
22152;SDS011;11242;50.536;12.688;2022-08-06T14:50:11;1.17;;;0.68;;
22152;SDS011;11242;50.536;12.688;2022-08-06T14:52:37;2.10;;;0.52;;
22152;SDS011;11242;50.536;12.688;2022-08-06T14:55:05;1.45;;;0.75;;
22152;SDS011;11242;50.536;12.688;2022-08-06T14:57:31;1.05;;;0.70;;
22152;SDS011;11242;50.536;12.688;2022-08-06T14:59:57;1.45;;;0.65;;
22152;SDS011;11242;50.536;12.688;2022-08-06T15:02:23;2.53;;;0.60;;
22152;SDS011;11242;50.536;12.688;2022-08-06T15:04:52;1.77;;;0.50;;
22152;SDS011;11242;50.536;12.688;2022-08-06T15:07:18;1.02;;;0.50;;
22152;SDS011;11242;50.536;12.688;2022-08-06T15:09:45;1.17;;;0.70;;
22152;SDS011;11242;50.536;12.688;2022-08-06T15:12:10;1.23;;;0.55;;
22152;SDS011;11242;50.536;12.688;2022-08-06T15:14:36;2.58;;;0.60;;
22152;SDS011;11242;50.536;12.688;2022-08-06T15:17:01;2.00;;;0.70;;
22152;SDS011;11242;50.536;12.688;2022-08-06T15:19:27;2.25;;;0.60;;
22152;SDS011;11242;50.536;12.688;2022-08-06T15:21:52;0.68;;;0.40;;
22152;SDS011;11242;50.536;12.688;2022-08-06T15:24:18;2.65;;;0.80;;
22152;SDS011;11242;50.536;12.688;2022-08-06T15:26:43;1.30;;;0.80;;
22152;SDS011;11242;50.536;12.688;2022-08-06T15:29:09;1.10;;;0.68;;
22152;SDS011;11242;50.536;12.688;2022-08-06T15:31:35;4.05;;;1.00;;
22152;SDS011;11242;50.536;12.688;2022-08-06T15:34:01;2.13;;;0.80;;
22152;SDS011;11242;50.536;12.688;2022-08-06T15:36:27;1.73;;;0.80;;
22152;SDS011;11242;50.536;12.688;2022-08-06T15:38:53;4.93;;;1.10;;
22152;SDS011;11242;50.536;12.688;2022-08-06T15:41:19;1.52;;;0.93;;
22152;SDS011;11242;50.536;12.688;2022-08-06T15:43:48;1.92;;;0.90;;
22152;SDS011;11242;50.536;12.688;2022-08-06T15:46:14;4.57;;;0.82;;
22152;SDS011;11242;50.536;12.688;2022-08-06T15:48:40;2.22;;;0.70;;
22152;SDS011;11242;50.536;12.688;2022-08-06T15:51:06;4.55;;;0.80;;
22152;SDS011;11242;50.536;12.688;2022-08-06T15:53:31;1.75;;;0.80;;